General Aviation Weather

Text Reports

Enter one or more of the following location identifiers separated by a space:

Zip Code, Four-Character ICAO or Three-Character IATA airport codes.

METAR - Aviation Routine Weather Report
PATL - Tatalina, Alaska
Updated at 11:55 AM GMT on May 22, 2015 (3:55 AM AKDT):
METAR PATL 221155Z AUTO 30002KT 10SM FEW060 10/05 A3020 RMK AO2 SLP228 70012 T00970054 10125 20087 54001 $
TAF - Terminal Area Forecast
PATL - Tatalina, Alaska
Updated at 11:55 AM GMT on May 22, 2015 (3:55 AM AKDT):
No TAF is currently available for this location.
Decoded:
No decoded TAF is available.
PIREP - Pilot Weather Report
PATL - Tatalina, Alaska
Updated at 11:55 AM GMT on May 22, 2015 (3:55 AM AKDT):
No PIREP is currently available for this location.
AIRMET - Airmens Meteorological Information
PATL - Tatalina, Alaska
Updated at 11:55 AM GMT on May 22, 2015 (3:55 AM AKDT):
No AIRMET is currently available for this location.
SIGMET - Significant Meteorological Information
PATL - Tatalina, Alaska
Updated at 11:55 AM GMT on May 22, 2015 (3:55 AM AKDT):
No SIGMET is currently available for this location.
NOTAM - Notice to Airmen
PATL - Tatalina, Alaska
Updated at 11:55 AM GMT on May 22, 2015 (3:55 AM AKDT):
No NOTAM is currently available for this location.
Forecast Area
PATL - Tatalina, Alaska
Updated at 11:55 AM GMT on May 22, 2015 (3:55 AM AKDT):
No NOTAM is currently available for this location.
Aviation Weather Maps